createdAt,value
2022-10-12T00:02:08.175Z,3.53
2022-10-12T00:04:35.203Z,3.80
2022-10-12T00:07:02.091Z,2.75
2022-10-12T00:09:28.992Z,2.83
2022-10-12T00:11:55.839Z,2.88
2022-10-12T00:14:22.846Z,2.58
2022-10-12T00:16:49.754Z,3.13
2022-10-12T00:19:16.651Z,3.55
2022-10-12T00:21:43.549Z,4.40
2022-10-12T00:24:10.749Z,2.63
2022-10-12T00:26:37.707Z,2.95
2022-10-12T00:29:04.917Z,2.88
2022-10-12T00:31:32.514Z,3.10
2022-10-12T00:34:04.044Z,2.92
2022-10-12T00:36:34.131Z,2.80
2022-10-12T00:39:02.007Z,2.97
2022-10-12T00:41:32.204Z,3.10
2022-10-12T00:43:59.448Z,2.97
2022-10-12T00:46:46.146Z,2.28
2022-10-12T00:49:17.740Z,2.55
2022-10-12T00:51:48.906Z,2.90
2022-10-12T00:54:26.931Z,2.53
2022-10-12T00:56:56.892Z,2.72
2022-10-12T00:59:31.787Z,2.90
2022-10-12T01:01:58.824Z,2.50
2022-10-12T01:04:26.307Z,2.78
2022-10-12T01:06:53.434Z,3.20
2022-10-12T01:09:21.633Z,2.35
2022-10-12T01:11:49.156Z,2.50
2022-10-12T01:14:17.372Z,2.40
2022-10-12T01:16:52.275Z,2.40
2022-10-12T01:19:28.469Z,2.28
2022-10-12T01:22:05.220Z,2.20
2022-10-12T01:24:39.152Z,2.38
2022-10-12T01:27:32.433Z,2.60
2022-10-12T01:30:26.884Z,2.20
2022-10-12T01:33:10.384Z,3.28
2022-10-12T01:35:54.128Z,2.30
2022-10-12T01:38:43.138Z,2.45
2022-10-12T01:41:25.726Z,1.88
2022-10-12T01:43:53.201Z,2.17
2022-10-12T01:46:20.087Z,3.47
2022-10-12T01:48:53.198Z,1.88
2022-10-12T01:51:43.225Z,2.10
2022-10-12T01:54:25.052Z,2.17
2022-10-12T01:57:04.066Z,2.10
2022-10-12T01:59:49.236Z,1.80
2022-10-12T02:02:22.178Z,2.03
2022-10-12T02:04:57.571Z,2.50
2022-10-12T02:07:42.696Z,2.17
2022-10-12T02:10:18.346Z,2.13
2022-10-12T02:12:48.127Z,2.75
2022-10-12T02:15:17.215Z,2.30
2022-10-12T02:17:48.246Z,2.00
2022-10-12T02:20:18.510Z,1.98
2022-10-12T02:22:48.926Z,2.75
2022-10-12T02:25:20.335Z,2.10
2022-10-12T02:27:54.972Z,2.30
2022-10-12T02:30:22.342Z,2.30
2022-10-12T02:33:14.764Z,2.08
2022-10-12T02:36:09.889Z,2.55
2022-10-12T02:41:14.461Z,2.30
2022-10-12T02:43:53.507Z,2.13
2022-10-12T02:46:23.920Z,2.00
2022-10-12T02:48:52.166Z,2.17
2022-10-12T02:51:19.795Z,2.13
2022-10-12T02:53:47.177Z,2.33
2022-10-12T02:56:16.308Z,2.15
2022-10-12T02:58:45.104Z,1.77
2022-10-12T03:01:13.081Z,2.20
2022-10-12T03:03:40.810Z,1.95
2022-10-12T03:06:08.091Z,2.55
2022-10-12T03:08:35.536Z,2.60
2022-10-12T03:11:08.234Z,1.83
2022-10-12T03:13:35.527Z,1.95
2022-10-12T03:16:10.375Z,2.10
2022-10-12T03:18:38.621Z,2.20
2022-10-12T03:21:05.722Z,2.90
2022-10-12T03:23:32.682Z,2.60
2022-10-12T03:25:59.607Z,2.42
2022-10-12T03:28:26.686Z,2.03
2022-10-12T03:30:53.880Z,2.15
2022-10-12T03:33:21.301Z,2.83
2022-10-12T03:35:48.385Z,2.20
2022-10-12T03:38:17.009Z,2.53
2022-10-12T03:40:45.242Z,2.03
2022-10-12T03:43:12.249Z,2.00
2022-10-12T03:45:39.183Z,2.25
2022-10-12T03:48:07.277Z,2.58
2022-10-12T03:50:35.451Z,2.33
2022-10-12T03:53:03.838Z,2.42
2022-10-12T03:55:31.041Z,2.92
2022-10-12T03:57:58.111Z,2.78
2022-10-12T04:00:25.384Z,2.42
2022-10-12T04:02:52.300Z,2.30
2022-10-12T04:05:19.158Z,2.30
2022-10-12T04:07:46.184Z,2.58
2022-10-12T04:10:13.216Z,2.20
2022-10-12T04:12:40.167Z,2.72
2022-10-12T04:15:07.927Z,2.60
2022-10-12T04:17:34.932Z,2.20
2022-10-12T04:20:01.867Z,2.10
2022-10-12T04:22:28.755Z,2.60
2022-10-12T04:24:55.727Z,3.03
2022-10-12T04:27:22.634Z,2.45
2022-10-12T04:29:49.536Z,2.00
2022-10-12T04:32:16.591Z,2.58
2022-10-12T04:34:43.501Z,2.47
2022-10-12T04:37:10.412Z,2.88
2022-10-12T04:39:37.526Z,2.30
2022-10-12T04:42:04.639Z,2.55
2022-10-12T04:44:32.488Z,2.80
2022-10-12T04:47:00.725Z,2.60
2022-10-12T04:49:27.637Z,2.70
2022-10-12T04:51:54.553Z,2.85
2022-10-12T04:54:21.482Z,2.58
2022-10-12T04:56:48.449Z,3.78
2022-10-12T04:59:15.653Z,2.70
2022-10-12T05:01:43.203Z,2.60
2022-10-12T05:04:10.269Z,3.25
2022-10-12T05:06:37.186Z,2.92
2022-10-12T05:09:04.203Z,3.83
2022-10-12T05:11:31.113Z,2.85
2022-10-12T05:13:58.225Z,3.60
2022-10-12T05:16:25.272Z,5.03
2022-10-12T05:18:52.479Z,3.60
2022-10-12T05:21:19.372Z,4.22
2022-10-12T05:23:51.779Z,3.67
2022-10-12T05:26:19.535Z,4.20
2022-10-12T05:28:46.521Z,3.63
2022-10-12T05:31:13.469Z,4.03
2022-10-12T05:33:40.381Z,3.78
2022-10-12T05:36:07.688Z,4.88
2022-10-12T05:38:34.583Z,5.05
2022-10-12T05:41:01.494Z,5.47
2022-10-12T05:43:28.811Z,4.82
2022-10-12T05:45:55.745Z,4.80
2022-10-12T05:48:23.036Z,5.80
2022-10-12T05:50:53.737Z,4.55
2022-10-12T05:53:21.853Z,5.10
2022-10-12T05:56:02.086Z,4.90
2022-10-12T05:58:30.510Z,4.10
2022-10-12T06:01:06.176Z,3.72
2022-10-12T06:03:35.130Z,4.40
2022-10-12T06:06:03.583Z,3.63
2022-10-12T06:08:31.859Z,3.75
2022-10-12T06:10:59.179Z,3.70
2022-10-12T06:13:26.509Z,3.67
2022-10-12T06:15:53.446Z,3.40
2022-10-12T06:18:20.921Z,3.78
2022-10-12T06:20:49.246Z,3.78
2022-10-12T06:23:16.319Z,3.80
2022-10-12T06:25:43.220Z,4.47
2022-10-12T06:28:10.436Z,4.03
2022-10-12T06:30:37.408Z,4.13
2022-10-12T06:33:04.751Z,3.63
2022-10-12T06:35:31.759Z,4.57
2022-10-12T06:37:58.860Z,3.78
2022-10-12T06:40:25.887Z,4.18
2022-10-12T06:42:58.294Z,4.60
2022-10-12T06:45:25.802Z,4.85
2022-10-12T06:47:55.741Z,3.10
2022-10-12T06:50:22.678Z,3.42
2022-10-12T06:52:49.591Z,3.90
2022-10-12T06:55:16.573Z,3.65
2022-10-12T06:57:43.496Z,3.50
2022-10-12T07:00:11.428Z,3.97
2022-10-12T07:02:38.562Z,3.28
2022-10-12T07:05:06.569Z,3.42
2022-10-12T07:07:35.799Z,3.40
2022-10-12T07:10:04.673Z,2.90
2022-10-12T07:12:31.548Z,2.67
2022-10-12T07:14:59.592Z,3.22
2022-10-12T07:17:26.512Z,3.05
2022-10-12T07:19:53.428Z,3.10
2022-10-12T07:26:08.437Z,3.50
2022-10-12T07:32:22.725Z,3.58
2022-10-12T07:34:49.681Z,3.30
2022-10-12T07:37:16.714Z,3.83
2022-10-12T07:39:43.803Z,3.15
2022-10-12T07:42:12.619Z,3.60
2022-10-12T07:44:42.404Z,3.30
2022-10-12T07:47:09.516Z,3.28
2022-10-12T07:49:36.441Z,2.88
2022-10-12T07:52:03.378Z,3.10
2022-10-12T07:54:30.875Z,2.90
2022-10-12T07:56:59.101Z,4.18
2022-10-12T07:59:26.195Z,2.88
2022-10-12T08:01:53.193Z,3.10
2022-10-12T08:04:20.085Z,2.40
2022-10-12T08:06:46.962Z,2.38
2022-10-12T08:09:13.861Z,2.08
2022-10-12T08:11:41.284Z,2.03
2022-10-12T08:14:16.246Z,2.05
2022-10-12T08:16:44.391Z,2.00
2022-10-12T08:19:11.622Z,2.38
2022-10-12T08:21:38.746Z,3.72
2022-10-12T08:24:05.954Z,1.80
2022-10-12T08:26:33.375Z,3.28
2022-10-12T08:29:02.515Z,2.13
2022-10-12T08:31:29.462Z,3.55
2022-10-12T08:33:58.562Z,2.92
2022-10-12T08:36:27.893Z,1.60
2022-10-12T08:38:55.762Z,2.33
2022-10-12T08:41:41.297Z,2.03
2022-10-12T08:44:29.769Z,2.13
2022-10-12T08:47:25.711Z,2.45
2022-10-12T08:49:54.069Z,1.80
2022-10-12T08:52:32.337Z,1.77
2022-10-12T08:55:06.930Z,1.50
2022-10-12T09:04:18.127Z,1.80
2022-10-12T09:06:50.047Z,1.40
2022-10-12T09:09:37.970Z,2.08
2022-10-12T09:12:14.219Z,1.63
2022-10-12T09:14:42.764Z,2.00
2022-10-12T09:17:27.670Z,1.60
2022-10-12T09:20:06.630Z,1.25
2022-10-12T09:22:35.380Z,1.35
2022-10-12T09:25:03.561Z,1.60
2022-10-12T09:27:32.055Z,1.80
2022-10-12T09:30:03.522Z,1.80
2022-10-12T09:32:47.518Z,2.72
2022-10-12T09:35:15.067Z,1.83
2022-10-12T09:37:42.177Z,1.30
2022-10-12T09:40:23.350Z,1.48
2022-10-12T09:42:51.052Z,2.63
2022-10-12T09:45:20.121Z,1.67
2022-10-12T09:48:15.988Z,1.55
2022-10-12T09:50:53.541Z,1.90
2022-10-12T09:53:28.860Z,1.65
2022-10-12T09:56:16.056Z,2.17
2022-10-12T09:58:58.030Z,1.60
2022-10-12T10:01:27.670Z,2.00
2022-10-12T10:04:13.427Z,1.55
2022-10-12T10:06:45.999Z,1.33
2022-10-12T10:09:33.894Z,1.58
2022-10-12T10:12:18.967Z,1.45
2022-10-12T10:14:46.073Z,1.83
2022-10-12T10:17:29.288Z,1.60
2022-10-12T10:19:57.991Z,1.77
2022-10-12T10:22:25.541Z,1.75
2022-10-12T10:25:00.452Z,1.30
2022-10-12T10:27:32.799Z,2.03
2022-10-12T10:30:29.507Z,1.52
2022-10-12T10:33:16.871Z,1.35
2022-10-12T10:36:00.811Z,1.10
2022-10-12T10:38:29.195Z,1.17
2022-10-12T10:40:57.697Z,1.20
2022-10-12T10:43:30.642Z,1.00
2022-10-12T10:46:03.481Z,1.40
2022-10-12T10:48:51.446Z,1.55
2022-10-12T10:51:18.435Z,0.80
2022-10-12T10:53:51.852Z,2.03
2022-10-12T10:56:29.570Z,1.10
2022-10-12T10:58:59.884Z,1.25
2022-10-12T11:01:40.288Z,1.40
2022-10-12T11:04:16.717Z,1.05
2022-10-12T11:06:52.109Z,2.03
2022-10-12T11:09:31.822Z,1.30
2022-10-12T11:12:09.571Z,0.90
2022-10-12T11:14:52.094Z,1.13
2022-10-12T11:17:42.698Z,0.90
2022-10-12T11:20:19.993Z,1.10
2022-10-12T11:22:54.816Z,1.20
2022-10-12T11:25:24.732Z,1.20
2022-10-12T11:27:53.962Z,1.02
2022-10-12T11:30:25.248Z,1.00
2022-10-12T11:33:03.128Z,1.17
2022-10-12T11:35:35.065Z,1.05
2022-10-12T11:38:15.379Z,0.95
2022-10-12T11:41:19.044Z,1.00
2022-10-12T11:43:50.359Z,1.35
2022-10-12T11:46:21.622Z,1.02
2022-10-12T11:48:55.137Z,1.00
2022-10-12T11:51:22.056Z,1.23
2022-10-12T11:54:18.288Z,0.95
2022-10-12T11:56:50.706Z,0.90
2022-10-12T11:59:31.068Z,1.00
2022-10-12T12:02:09.739Z,1.20
2022-10-12T12:04:42.775Z,1.30
2022-10-12T12:07:38.226Z,1.20
2022-10-12T12:10:30.622Z,1.45
2022-10-12T12:13:15.391Z,1.30
2022-10-12T12:16:03.987Z,1.35
2022-10-12T12:18:34.061Z,1.70
2022-10-12T12:21:07.605Z,1.67
2022-10-12T12:23:50.332Z,1.23
2022-10-12T12:26:19.459Z,1.17
2022-10-12T12:28:52.711Z,1.48
2022-10-12T12:31:22.375Z,1.40
2022-10-12T12:34:00.533Z,1.40
2022-10-12T12:36:36.953Z,1.40
2022-10-12T12:39:07.567Z,1.13
2022-10-12T12:42:09.665Z,1.27
2022-10-12T12:44:43.989Z,1.48
2022-10-12T12:50:30.121Z,1.10
2022-10-12T12:53:06.803Z,1.27
2022-10-12T12:55:58.637Z,1.35
2022-10-12T12:58:37.041Z,1.40
2022-10-12T13:01:03.971Z,1.30
2022-10-12T13:03:56.753Z,1.70
2022-10-12T13:06:29.475Z,1.52
2022-10-12T13:09:16.532Z,1.50
2022-10-12T13:11:55.687Z,1.40
2022-10-12T13:14:59.124Z,1.40
2022-10-12T13:18:18.320Z,1.75
2022-10-12T13:20:50.734Z,1.20
2022-10-12T13:23:22.575Z,1.27
2022-10-12T13:26:06.626Z,1.50
2022-10-12T13:28:38.152Z,1.90
2022-10-12T13:31:09.618Z,1.30
2022-10-12T13:34:06.488Z,1.63
2022-10-12T13:36:46.057Z,1.30
2022-10-12T13:39:19.883Z,1.35
2022-10-12T13:41:51.405Z,1.50
2022-10-12T13:44:28.321Z,2.65
2022-10-12T13:47:01.263Z,1.80
2022-10-12T13:49:30.779Z,1.90
2022-10-12T13:52:18.275Z,1.77
2022-10-12T13:54:48.904Z,1.60
2022-10-12T13:57:46.669Z,1.40
2022-10-12T14:00:16.648Z,2.03
2022-10-12T14:03:06.323Z,1.70
2022-10-12T14:05:42.491Z,2.15
2022-10-12T14:08:21.466Z,2.97
2022-10-12T14:10:49.508Z,2.20
2022-10-12T14:13:32.034Z,2.30
2022-10-12T14:16:01.108Z,2.15
2022-10-12T14:18:34.628Z,1.83
2022-10-12T14:21:31.158Z,2.60
2022-10-12T14:24:09.560Z,1.90
2022-10-12T14:26:40.899Z,1.70
2022-10-12T14:29:46.977Z,1.80
2022-10-12T14:32:13.834Z,1.65
2022-10-12T14:34:50.550Z,2.15
2022-10-12T14:37:17.479Z,1.98
2022-10-12T14:39:47.544Z,1.80
2022-10-12T14:42:20.049Z,2.00
2022-10-12T14:44:47.391Z,1.90
2022-10-12T14:47:22.535Z,2.40
2022-10-12T14:49:51.616Z,2.10
2022-10-12T14:52:31.397Z,2.35
2022-10-12T14:54:59.399Z,1.65
2022-10-12T14:57:30.181Z,1.60
2022-10-12T14:59:57.665Z,1.70
2022-10-12T15:02:30.107Z,2.10
2022-10-12T15:04:58.064Z,3.10
2022-10-12T15:07:34.019Z,1.63
2022-10-12T15:10:02.099Z,1.73
2022-10-12T15:12:32.253Z,1.83
2022-10-12T15:15:01.351Z,1.60
2022-10-12T15:17:28.331Z,2.20
2022-10-12T15:19:55.299Z,1.90
2022-10-12T15:22:26.664Z,2.20
2022-10-12T15:24:54.879Z,2.00
2022-10-12T15:27:22.140Z,2.03
2022-10-12T15:29:51.088Z,2.25
2022-10-12T15:32:18.984Z,2.72
2022-10-12T15:34:46.376Z,2.13
2022-10-12T15:37:13.494Z,2.10
2022-10-12T15:39:41.751Z,2.67
2022-10-12T15:42:09.772Z,2.05
2022-10-12T15:44:41.279Z,2.55
2022-10-12T15:47:10.523Z,2.58
2022-10-12T15:49:37.956Z,6.28
2022-10-12T15:52:09.600Z,5.15
2022-10-12T15:54:36.511Z,2.60
2022-10-12T15:57:03.498Z,2.17
2022-10-12T15:59:30.474Z,2.88
2022-10-12T16:01:58.538Z,2.00
2022-10-12T16:04:25.426Z,2.15
2022-10-12T16:06:52.311Z,2.72
2022-10-12T16:09:19.188Z,2.72
2022-10-12T16:11:46.136Z,3.17
2022-10-12T16:14:14.871Z,3.78
2022-10-12T16:16:41.767Z,2.70
2022-10-12T16:19:08.641Z,2.28
2022-10-12T16:21:35.568Z,2.47
2022-10-12T16:24:02.574Z,2.45
2022-10-12T16:26:29.567Z,2.97
2022-10-12T16:28:56.522Z,2.85
2022-10-12T16:31:23.545Z,2.33
2022-10-12T16:33:50.477Z,3.33
2022-10-12T16:36:18.067Z,3.28
2022-10-12T16:38:45.554Z,2.20
2022-10-12T16:41:14.496Z,2.58
2022-10-12T16:43:41.440Z,2.92
2022-10-12T16:46:08.508Z,2.78
2022-10-12T16:48:36.124Z,2.70
2022-10-12T16:51:11.712Z,3.15
2022-10-12T16:57:31.939Z,2.65
2022-10-12T16:59:59.037Z,2.50
2022-10-12T17:02:27.500Z,2.80
2022-10-12T17:04:54.436Z,2.58
2022-10-12T17:07:21.403Z,3.25
2022-10-12T17:09:48.287Z,3.20
2022-10-12T17:12:15.569Z,3.58
2022-10-12T17:14:42.632Z,3.10
2022-10-12T17:17:09.645Z,2.63
2022-10-12T17:19:39.894Z,3.90
2022-10-12T17:22:09.572Z,3.10
2022-10-12T17:28:23.746Z,3.45
2022-10-12T17:30:50.692Z,3.58
2022-10-12T17:33:17.605Z,3.15
2022-10-12T17:35:44.535Z,3.42
2022-10-12T17:38:11.470Z,3.42
2022-10-12T17:40:39.711Z,3.50
2022-10-12T17:43:06.653Z,3.80
2022-10-12T17:45:33.753Z,3.78
2022-10-12T17:51:42.242Z,3.70
2022-10-12T17:54:10.153Z,4.07
2022-10-12T17:56:37.160Z,4.53
2022-10-12T17:59:05.179Z,4.10
2022-10-12T18:01:32.807Z,4.60
2022-10-12T18:04:04.767Z,5.05
2022-10-12T18:06:32.927Z,5.03
2022-10-12T18:09:02.253Z,4.53
2022-10-12T18:11:29.305Z,4.78
2022-10-12T18:13:57.295Z,5.00
2022-10-12T18:16:30.173Z,4.40
2022-10-12T18:18:59.643Z,5.03
2022-10-12T18:21:28.527Z,5.15
2022-10-12T18:23:55.882Z,5.30
2022-10-12T18:26:23.135Z,5.45
2022-10-12T18:28:52.108Z,5.45
2022-10-12T18:31:24.922Z,5.93
2022-10-12T18:33:52.898Z,6.22
2022-10-12T18:36:20.870Z,5.95
2022-10-12T18:38:47.887Z,5.60
2022-10-12T18:41:26.919Z,6.40
2022-10-12T18:43:58.937Z,6.55
2022-10-12T18:46:28.206Z,6.60
2022-10-12T18:48:55.412Z,6.72
2022-10-12T18:51:34.155Z,7.40
2022-10-12T18:54:02.230Z,6.03
2022-10-12T18:56:31.172Z,5.85
2022-10-12T18:58:59.878Z,7.40
2022-10-12T19:01:29.221Z,8.35
2022-10-12T19:03:58.055Z,9.15
2022-10-12T19:06:31.249Z,9.65
2022-10-12T19:08:59.258Z,16.00
2022-10-12T19:11:27.544Z,11.52
2022-10-12T19:14:00.284Z,10.50
2022-10-12T19:16:27.622Z,8.70
2022-10-12T19:19:04.171Z,8.43
2022-10-12T19:21:31.190Z,8.30
2022-10-12T19:23:58.327Z,9.48
2022-10-12T19:26:27.259Z,8.50
2022-10-12T19:28:56.117Z,8.05
2022-10-12T19:31:27.240Z,9.10
2022-10-12T19:34:01.594Z,9.60
2022-10-12T19:36:29.568Z,7.75
2022-10-12T19:38:57.807Z,8.32
2022-10-12T19:41:26.319Z,8.77
2022-10-12T19:43:53.609Z,8.52
2022-10-12T19:46:20.979Z,8.50
2022-10-12T19:48:50.225Z,7.68
2022-10-12T19:51:18.247Z,8.02
2022-10-12T19:53:45.244Z,7.68
2022-10-12T19:56:14.765Z,8.52
2022-10-12T19:58:43.953Z,8.07
2022-10-12T20:05:05.873Z,7.85
2022-10-12T20:07:32.762Z,8.45
2022-10-12T20:09:59.728Z,8.60
2022-10-12T20:12:26.601Z,8.85
2022-10-12T20:14:53.607Z,8.15
2022-10-12T20:17:20.513Z,8.70
2022-10-12T20:19:49.347Z,8.32
2022-10-12T20:22:19.760Z,8.05
2022-10-12T20:24:46.855Z,8.45
2022-10-12T20:27:13.779Z,8.00
2022-10-12T20:29:41.531Z,7.25
2022-10-12T20:32:08.472Z,8.88
2022-10-12T20:34:35.415Z,8.00
2022-10-12T20:37:02.369Z,8.35
2022-10-12T20:39:29.236Z,8.77
2022-10-12T20:41:56.350Z,10.18
2022-10-12T20:44:23.269Z,9.15
2022-10-12T20:46:50.474Z,9.30
2022-10-12T20:49:17.432Z,11.45
2022-10-12T20:51:44.921Z,10.10
2022-10-12T20:54:18.676Z,10.95
2022-10-12T20:56:49.433Z,9.65
2022-10-12T20:59:16.338Z,9.40
2022-10-12T21:01:43.252Z,9.85
2022-10-12T21:04:12.856Z,10.20
2022-10-12T21:06:41.685Z,10.88
2022-10-12T21:09:12.435Z,10.57
2022-10-12T21:11:39.652Z,11.45
2022-10-12T21:14:06.693Z,12.02
2022-10-12T21:16:33.644Z,10.80
2022-10-12T21:19:00.489Z,10.65
2022-10-12T21:21:27.401Z,9.57
2022-10-12T21:24:02.807Z,9.35
2022-10-12T21:26:31.066Z,9.35
2022-10-12T21:29:01.254Z,9.73
2022-10-12T21:31:32.385Z,9.32
2022-10-12T21:34:01.767Z,9.80
2022-10-12T21:36:30.066Z,9.63
2022-10-12T21:38:57.652Z,8.77
2022-10-12T21:41:27.013Z,9.50
2022-10-12T21:43:54.640Z,9.77
2022-10-12T21:46:24.384Z,8.60
2022-10-12T21:48:52.075Z,9.50
2022-10-12T21:51:20.837Z,10.10
2022-10-12T21:53:47.836Z,8.82
2022-10-12T21:56:29.994Z,8.18
2022-10-12T21:58:58.931Z,8.90
2022-10-12T22:01:38.274Z,8.63
2022-10-12T22:04:07.860Z,8.63
2022-10-12T22:06:35.249Z,8.90
2022-10-12T22:09:08.398Z,8.27
2022-10-12T22:11:37.026Z,9.60
2022-10-12T22:14:11.409Z,9.57
2022-10-12T22:16:38.731Z,9.05
2022-10-12T22:19:08.666Z,9.27
2022-10-12T22:21:36.905Z,9.57
2022-10-12T22:24:04.169Z,8.32
2022-10-12T22:26:31.475Z,8.50
2022-10-12T22:29:00.440Z,9.10
2022-10-12T22:31:27.797Z,9.30
2022-10-12T22:33:55.816Z,8.48
2022-10-12T22:36:23.010Z,8.88
2022-10-12T22:38:49.981Z,9.05
2022-10-12T22:41:21.705Z,9.15
2022-10-12T22:43:51.055Z,9.60
2022-10-12T22:46:19.208Z,10.27
2022-10-12T22:48:47.124Z,10.13
2022-10-12T22:51:33.256Z,10.38
2022-10-12T22:54:01.417Z,9.75
2022-10-12T22:56:29.293Z,10.07
2022-10-12T22:58:58.649Z,10.32
2022-10-12T23:01:26.114Z,9.77
2022-10-12T23:03:54.459Z,9.43
2022-10-12T23:06:22.039Z,9.70
2022-10-12T23:08:49.034Z,8.45
2022-10-12T23:11:22.866Z,8.45
2022-10-12T23:13:50.093Z,8.75
2022-10-12T23:16:24.491Z,10.13
2022-10-12T23:21:27.585Z,9.30
2022-10-12T23:23:54.552Z,8.48
2022-10-12T23:26:24.395Z,9.10
2022-10-12T23:28:52.033Z,9.65
2022-10-12T23:31:24.444Z,11.13
2022-10-12T23:33:56.564Z,9.82
2022-10-12T23:36:23.769Z,9.52
2022-10-12T23:38:50.854Z,9.77
2022-10-12T23:41:17.895Z,9.38
2022-10-12T23:43:44.926Z,9.23
2022-10-12T23:46:12.718Z,9.13
2022-10-12T23:48:39.768Z,9.32
2022-10-12T23:51:11.120Z,8.38
2022-10-12T23:53:38.724Z,9.63
2022-10-12T23:56:06.749Z,8.98
2022-10-12T23:58:34.197Z,9.35
